INFORMAÇÕES DO AERODROMO
Icao Aerodromo KDTA Nome do Aerodromo Delta Municipal Airport Cidade Delta
Código GPS KDTA Elevação Média 4759 ft Tipo de Aerodromo small_airport

INFORMAÇÃO DE PISTA
Pista 12 Comprimento da Pista 5935 ft Largura da Pista 85 ft
Elevação da Pista 4755 ft Distância de Area de Escape da Pista 1060 ft Orientação da Pista 132
Pista 30 Comprimento da Pista 5935 ft Largura da Pista 85 ft
Elevação da Pista 4755 ft Distância de Area de Escape da Pista 275 ft Orientação da Pista 312
Pista 17 Comprimento da Pista 5500 ft Largura da Pista 75 ft
Elevação da Pista 4759 ft Distância de Area de Escape da Pista 0 ft Orientação da Pista 180
Pista 35 Comprimento da Pista 5500 ft Largura da Pista 75 ft
Elevação da Pista 4753 ft Distância de Area de Escape da Pista 0 ft Orientação da Pista 0

FREQUÊNCIAS DO AERODROMO
Tipo AWOS Nome AWOS 3 Frequência 127.75 MHZ
Tipo RDO Nome CEDAR CITY Frequência 122.55 MHZ
Tipo UNIC Nome CTAF/UNICO Frequência 122.8 MHZ

INFORMAÇÕES DE NAVEGAÇÃO PRÓXIMO AO AERODROMO

Informações de Meteorologia(METAR atual)
METAR DE KDTA
ADDS - METARS form results

(0938 UTC 24 September 2019)
Data provider http://aviationweather.gov/metar/data/
 
METAR text: KDTA 240915Z AUTO 20007KT 10SM CLR 07/M01 A3020 RMK AO1
Conditions at: KDTA (DELTA , UT, US) observed 0915 UTC 24 September 2019
Temperature: 7.0°C (45°F)
Dewpoint: -1.0°C (30°F) [RH = 57%]
Pressure (altimeter): 30.20 inches Hg (1022.8 mb)
Winds: from the SSW (200 degrees) at 8 MPH (7 knots; 3.6 m/s)
Visibility: 10 or more miles (16+ km)
Ceiling: at least 12,000 feet AGL
Clouds: sky clear below 12,000 feet AGL
Weather: automated observation with no human augmentation;
there may or may not be significant weather present at this time

METAR text: KDTA 240855Z AUTO 18004KT 10SM CLR 07/00 A3020 RMK AO1
Conditions at: KDTA (DELTA , UT, US) observed 0855 UTC 24 September 2019
Temperature: 7.0°C (45°F)
Dewpoint: 0.0°C (32°F) [RH = 61%]
Pressure (altimeter): 30.20 inches Hg (1022.8 mb)
Winds: from the S (180 degrees) at 5 MPH (4 knots; 2.1 m/s)
Visibility: 10 or more miles (16+ km)
Ceiling: at least 12,000 feet AGL
Clouds: sky clear below 12,000 feet AGL
Weather: automated observation with no human augmentation;
there may or may not be significant weather present at this time

MAPA DO AERODROMO


Desenvolvido por Virtual Airlines Manager




Modificado por Servidor Brasil Amigos